Mendon, NY (14506)

5:30 PM EDT on April 30, 2017 (GMT -0400)
Mendon | | Change Station

Elev 617 ft 42.97 °N, 77.53 °W | Updated 11 seconds ago

Mostly Cloudy
Mostly Cloudy
63.9 °F
Feels Like 63.9 °F
N
6.0
Wind Variable Wind from SE
Gusts 7.4 mph

Today
High -- | Low -- °F
--% Chance of Precip.
Yesterday
High -- | Low -- °F
Precip. -- in
Pressure 30.01 in
Visibility 10.0 miles
Clouds Few 3800 ft
Scattered Clouds 5000 ft
Scattered Clouds 12000 ft
Overcast 27000 ft
Dew Point 53 °F
Humidity 67%
Rainfall 0.00 in
Snow Depth Not available.
6:04 AM 8:10 PM
Waxing Crescent, 26% visible
METAR KROC 302054Z 06009KT 10SM FEW038 SCT050 SCT120 OVC270 12/07 A2999 RMK AO2 LTG DSNT SW SLP162 CB DSNT SW MOV NE T01220067 58039
Pressure 30.01 in
Visibility 10.0 miles
Clouds Few 3800 ft
Scattered Clouds 5000 ft
Scattered Clouds 12000 ft
Overcast 27000 ft
Dew Point 53 °F
Humidity 67%
Rainfall 0.00 in
Snow Depth Not available.
6:04 AM 8:10 PM
Waxing Crescent, 26% visible
METAR KROC 302054Z 06009KT 10SM FEW038 SCT050 SCT120 OVC270 12/07 A2999 RMK AO2 LTG DSNT SW SLP162 CB DSNT SW MOV NE T01220067 58039

Get Severe Weather Alerts

Thanks for signing up!

Be on the lookout for a verification email in your inbox.

You'll start receiving the daily forecast at 8 AM.

×

10-Day Weather Forecast

Almanac

Astronomy

Apr. 30, 2017 Rise Set
Actual Time
Civil Twilight
Nautical Twilight
Astronomical Twilight
Moon
Length of Visible Light
Length of Day
Tomorrow will be .
, % of the Moon is Illuminated

Today's Extremes

State Highs State Lows

Community

WunderPhotos

WunderBlog® & News

Nearby

Air Quality

  Air Quality AQ Index Pollutant
Not available.

Snow Depth

Station Depth Elevation

Earthquake Activity

City Distance Mag. Time & Date
Minimum magnitude displayed is 2.5.

Coastal Water Temperatures

Place Temperature

Stations

Nearby Weather Stations

Station Location Temp. Windchill Dew Point Humidity Wind Precip. Elev Updated Type
                   

Watches & Warnings

There are currently no watches in effect.